createdAt,value
2019-02-18T00:01:09.789Z,12.73
2019-02-18T00:03:41.427Z,12.73
2019-02-18T01:38:13.161Z,9.50
2019-02-18T01:40:50.517Z,10.30
2019-02-18T01:43:21.429Z,10.37
2019-02-18T01:45:51.911Z,11.13
2019-02-18T01:48:29.408Z,10.40
2019-02-18T01:51:01.370Z,10.90
2019-02-18T01:53:32.125Z,9.70
2019-02-18T01:56:04.892Z,11.03
2019-02-18T01:58:37.560Z,9.13
2019-02-18T02:01:10.753Z,11.27
2019-02-18T02:03:42.634Z,8.20
2019-02-18T02:06:12.853Z,10.13
2019-02-18T02:08:48.932Z,9.73
2019-02-18T02:11:21.270Z,8.03
2019-02-18T02:14:01.926Z,9.93
2019-02-18T02:16:34.600Z,9.10
2019-02-18T02:19:06.505Z,9.23
2019-02-18T02:21:47.888Z,10.20
2019-02-18T02:24:18.295Z,9.57
2019-02-18T02:26:48.709Z,10.07
2019-02-18T02:30:08.327Z,8.73
2019-02-18T02:32:49.807Z,9.97
2019-02-18T02:35:22.053Z,10.13
2019-02-18T02:38:07.267Z,8.63
2019-02-18T02:40:41.214Z,12.57
2019-02-18T02:43:14.792Z,8.63
2019-02-18T02:46:03.036Z,7.37
2019-02-18T02:48:30.913Z,9.97
2019-02-18T02:51:34.614Z,11.17
2019-02-18T02:54:12.125Z,10.60
2019-02-18T03:00:21.361Z,9.43
2019-02-18T03:02:58.813Z,9.97
2019-02-18T03:05:45.458Z,9.90
2019-02-18T03:08:21.349Z,9.53
2019-02-18T03:11:05.086Z,9.67
2019-02-18T03:13:45.118Z,7.80
2019-02-18T03:22:37.029Z,8.97
2019-02-18T03:25:47.530Z,12.30
2019-02-18T03:29:20.720Z,10.90
2019-02-18T03:31:56.550Z,9.07
2019-02-18T03:35:01.034Z,10.40
2019-02-18T03:37:43.896Z,9.57
2019-02-18T03:40:40.339Z,8.63
2019-02-18T03:43:16.544Z,9.13
2019-02-18T03:45:58.854Z,9.33
2019-02-18T03:48:36.304Z,10.20
2019-02-18T03:54:01.371Z,10.27
2019-02-18T03:56:34.761Z,9.27
2019-02-18T03:59:07.757Z,10.47
2019-02-18T04:01:39.971Z,10.03
2019-02-18T04:04:26.552Z,10.80
2019-02-18T04:07:10.203Z,9.83
2019-02-18T04:09:58.490Z,8.90
2019-02-18T04:12:37.103Z,10.20
2019-02-18T04:15:18.328Z,10.83
2019-02-18T04:18:04.975Z,7.93
2019-02-18T04:20:36.895Z,11.10
2019-02-18T04:23:23.877Z,8.97
2019-02-18T04:26:03.791Z,12.30
2019-02-18T04:28:50.308Z,9.17
2019-02-18T04:35:02.732Z,10.57
2019-02-18T04:37:37.772Z,10.17
2019-02-18T04:40:17.126Z,10.33
2019-02-18T04:43:20.404Z,11.37
2019-02-18T04:45:59.606Z,9.33
2019-02-18T04:48:57.625Z,10.47
2019-02-18T04:51:57.214Z,8.70
2019-02-18T04:54:41.589Z,9.93
2019-02-18T04:57:13.121Z,9.67
2019-02-18T05:00:16.970Z,10.13
2019-02-18T05:02:51.799Z,11.13
2019-02-18T05:05:22.947Z,14.10
2019-02-18T05:08:00.049Z,18.33
2019-02-18T05:10:30.831Z,15.17
2019-02-18T05:13:41.118Z,13.13
2019-02-18T05:16:14.817Z,10.30
2019-02-18T05:22:19.269Z,13.13
2019-02-18T05:28:25.400Z,10.17
2019-02-18T05:31:11.033Z,11.03
2019-02-18T05:34:44.223Z,9.83
2019-02-18T05:41:31.214Z,13.13
2019-02-18T05:44:35.247Z,12.20
2019-02-18T05:50:56.007Z,12.97
2019-02-18T05:56:24.976Z,12.23
2019-02-18T05:59:28.026Z,12.07
2019-02-18T06:02:13.475Z,12.40
2019-02-18T06:05:07.458Z,13.10
2019-02-18T06:07:50.925Z,11.37
2019-02-18T06:10:42.313Z,10.87
2019-02-18T06:13:17.477Z,11.33
2019-02-18T06:15:57.717Z,12.53
2019-02-18T06:18:29.734Z,12.70
2019-02-18T06:21:01.343Z,12.73
2019-02-18T06:23:32.988Z,11.97
2019-02-18T06:26:07.690Z,14.20
2019-02-18T06:28:38.192Z,15.33
2019-02-18T06:31:12.022Z,13.93
2019-02-18T06:33:47.470Z,15.33
2019-02-18T06:36:19.113Z,17.57
2019-02-18T06:38:51.891Z,15.50
2019-02-18T06:41:23.350Z,15.43
2019-02-18T06:43:54.813Z,14.33
2019-02-18T06:46:57.393Z,16.77
2019-02-18T06:49:30.511Z,13.87
2019-02-18T06:52:03.255Z,12.57
2019-02-18T06:54:34.951Z,15.77
2019-02-18T06:57:27.012Z,13.43
2019-02-18T06:59:59.898Z,15.03
2019-02-18T07:02:51.730Z,16.60
2019-02-18T07:05:46.867Z,17.47
2019-02-18T07:08:51.756Z,16.87
2019-02-18T07:11:32.287Z,18.37
2019-02-18T07:14:03.527Z,15.63
2019-02-18T07:16:46.318Z,14.07
2019-02-18T07:19:48.875Z,13.93
2019-02-18T07:22:23.528Z,14.83
2019-02-18T07:24:57.141Z,13.53
2019-02-18T07:27:33.605Z,12.07
2019-02-18T07:32:55.820Z,16.10
2019-02-18T07:35:35.321Z,13.60
2019-02-18T07:38:12.668Z,14.43
2019-02-18T07:40:43.586Z,12.03
2019-02-18T07:43:14.498Z,14.70
2019-02-18T07:45:46.567Z,12.97
2019-02-18T07:48:19.203Z,16.83
2019-02-18T07:50:52.768Z,13.57
2019-02-18T07:53:31.748Z,18.07
2019-02-18T07:56:05.949Z,15.17
2019-02-18T07:58:39.429Z,17.73
2019-02-18T08:01:12.093Z,15.57
2019-02-18T08:03:42.762Z,20.77
2019-02-18T08:06:14.583Z,17.73
2019-02-18T08:08:51.239Z,17.67
2019-02-18T08:11:28.096Z,14.27
2019-02-18T08:14:08.924Z,12.97
2019-02-18T08:16:47.458Z,14.00
2019-02-18T08:22:00.050Z,13.50
2019-02-18T08:24:33.754Z,11.00
2019-02-18T08:27:11.663Z,11.00
2019-02-18T08:29:44.720Z,11.37
2019-02-18T08:32:21.721Z,9.70
2019-02-18T08:38:14.230Z,12.80
2019-02-18T14:44:11.670Z,7.40
2019-02-18T14:47:12.890Z,10.93
2019-02-18T14:56:15.338Z,10.37
2019-02-18T15:02:17.193Z,11.43
2019-02-18T15:04:50.250Z,13.00
2019-02-18T15:07:21.180Z,8.23
2019-02-18T15:10:16.585Z,9.80
2019-02-18T15:13:05.877Z,8.83
2019-02-18T15:15:36.289Z,8.50
2019-02-18T15:18:12.119Z,10.07
2019-02-18T15:20:44.407Z,10.13
2019-02-18T15:23:14.929Z,6.53
2019-02-18T15:25:50.221Z,8.00
2019-02-18T15:28:24.392Z,11.67
2019-02-18T15:30:58.575Z,9.70
2019-02-18T15:33:30.105Z,11.57
2019-02-18T15:36:01.923Z,12.13
2019-02-18T15:38:43.764Z,11.57
2019-02-18T15:41:17.369Z,16.27
2019-02-18T15:43:47.770Z,12.57
2019-02-18T15:46:21.673Z,16.63
2019-02-18T15:48:52.502Z,11.90
2019-02-18T15:52:03.366Z,12.77
2019-02-18T15:58:04.896Z,7.53
2019-02-18T16:00:51.012Z,9.23
2019-02-18T16:03:23.185Z,7.03
2019-02-18T16:05:57.030Z,7.60
2019-02-18T16:08:33.473Z,8.87
2019-02-18T16:13:44.598Z,14.77
2019-02-18T16:14:46.309Z,15.57
2019-02-18T16:17:28.128Z,13.00
2019-02-18T16:20:07.538Z,11.60
2019-02-18T16:58:45.337Z,53.60
2019-02-18T17:01:25.738Z,49.63
2019-02-18T17:20:40.928Z,38.60
2019-02-18T17:23:44.191Z,24.37
2019-02-18T17:34:17.053Z,22.07
2019-02-18T17:40:09.852Z,31.50
2019-02-18T19:04:42.128Z,76.77
2019-02-18T19:12:37.857Z,39.77
2019-02-18T19:18:14.301Z,29.87
2019-02-18T20:42:42.432Z,12.70
2019-02-18T20:45:19.590Z,13.00
2019-02-18T20:48:02.905Z,14.77
2019-02-18T20:50:34.493Z,14.87
2019-02-18T20:53:04.718Z,9.50
2019-02-18T20:55:43.094Z,16.17
2019-02-18T20:58:18.201Z,15.77
2019-02-18T21:00:53.158Z,12.10
2019-02-18T21:03:26.228Z,20.47
2019-02-18T21:06:01.528Z,13.07
2019-02-18T21:08:36.029Z,10.60
2019-02-18T21:11:09.603Z,12.27
2019-02-18T21:13:40.402Z,11.53
2019-02-18T21:16:23.513Z,13.47
2019-02-18T21:18:55.451Z,11.23
2019-02-18T21:21:40.176Z,9.73
2019-02-18T21:24:28.446Z,13.37
2019-02-18T21:27:08.084Z,17.70
2019-02-18T21:29:47.698Z,10.27
2019-02-18T21:32:40.073Z,15.77
2019-02-18T21:35:16.243Z,11.20
2019-02-18T21:37:49.183Z,23.10
2019-02-18T21:40:21.477Z,18.97
2019-02-18T21:42:54.586Z,15.23
2019-02-18T21:45:47.371Z,14.90
2019-02-18T21:48:35.383Z,14.87
2019-02-18T21:51:11.342Z,15.13
2019-02-18T21:53:45.076Z,20.60
2019-02-18T21:56:15.184Z,17.47
2019-02-18T21:58:45.334Z,19.53
2019-02-18T22:01:16.186Z,19.13
2019-02-18T22:03:53.342Z,23.20
2019-02-18T22:06:24.072Z,23.43
2019-02-18T22:08:56.823Z,18.57
2019-02-18T22:11:26.807Z,20.77
2019-02-18T22:13:56.963Z,24.97
2019-02-18T22:16:30.396Z,29.47
2019-02-18T22:19:07.090Z,23.33
2019-02-18T22:21:37.681Z,20.90
2019-02-18T22:24:07.946Z,23.93
2019-02-18T22:26:47.079Z,24.60
2019-02-18T22:29:17.763Z,17.77
2019-02-18T22:31:55.657Z,16.70
2019-02-18T22:34:25.496Z,17.73
2019-02-18T22:36:58.072Z,20.97
2019-02-18T22:39:30.405Z,22.47
2019-02-18T22:42:00.313Z,16.03
2019-02-18T22:44:32.838Z,21.33
2019-02-18T22:47:03.075Z,31.93
2019-02-18T22:49:35.163Z,24.43
2019-02-18T22:52:05.056Z,25.07
2019-02-18T22:54:35.305Z,20.70
2019-02-18T22:57:05.133Z,22.13
2019-02-18T22:59:35.184Z,22.27
2019-02-18T23:02:17.731Z,23.40
2019-02-18T23:04:47.717Z,23.03
2019-02-18T23:07:17.958Z,41.17
2019-02-18T23:09:48.249Z,47.23
2019-02-18T23:12:19.934Z,38.77
2019-02-18T23:14:56.086Z,33.70
2019-02-18T23:17:27.011Z,44.80
2019-02-18T23:19:56.862Z,35.17
2019-02-18T23:22:30.084Z,26.97
2019-02-18T23:25:00.360Z,33.97
2019-02-18T23:27:33.016Z,28.87
2019-02-18T23:30:27.498Z,21.87
2019-02-18T23:32:59.195Z,24.00
2019-02-18T23:35:32.685Z,25.13
2019-02-18T23:38:03.497Z,17.77
2019-02-18T23:40:33.421Z,21.40
2019-02-18T23:43:03.455Z,33.37
2019-02-18T23:45:38.355Z,23.47
2019-02-18T23:48:10.071Z,22.87
2019-02-18T23:50:40.117Z,25.27
2019-02-18T23:53:29.503Z,24.80
2019-02-18T23:55:59.682Z,28.30
2019-02-18T23:58:29.647Z,27.83
